Current | Forecast
Updated: 10:30 AM EEST on April 26, 2017
Observed at L'viv, Ukraine
Temperature 16°C
Humidity 48%
Dew Point 5°C
Wind SSW at 25 km/h
Pressure 1010 hPa (Steady)
Conditions Clear
Visibility -
UV N/A
Clouds
Yesterday's Maximum 17°C
Yesterday's Minimum -1°C approx.
Yesterday's Heating Degree Days 19 approx.
Sunrise6:06 AM EEST
Sunset8:31 PM EEST
Moon Rise6:28 AM EEST
Moon Set8:26 PM EEST
Moon PhaseMoon Phase
Waning Crescent
Raw METARMETAR UKLL 260730Z 21007MPS CAVOK 16/05 Q1010 R13/CLRD// NOSIG


Monday
. High: 62° F.
Tuesday
. High: 60° F.
Wednesday
. High: 75° F.
Thursday
. High: 75° F.
Friday
. High: 68° F.
Saturday
. High: 68° F.
Sunday
. High: 69° F.
Monday
. High: 77° F.

Units: English | Metric

Find the Weather for any City, State or Zipcode, or Country:

U.S. State List | Severe Weather | Tropical Storms | Ski Conditions
United States | Canada | Central America | South America | Asia | Europe | Australia | Africa | Islands

Weather Underground

© Copyright 2017
The Weather Company, LLC